sensor_id;sensor_type;location;lat;lon;timestamp;P1;durP1;ratioP1;P2;durP2;ratioP2
71236;SDS011;58984;51.960;5.582;2023-06-19T00:02:07;14.48;;;8.65;;
71236;SDS011;58984;51.960;5.582;2023-06-19T00:04:33;11.18;;;8.65;;
71236;SDS011;58984;51.960;5.582;2023-06-19T00:06:59;11.50;;;8.98;;
71236;SDS011;58984;51.960;5.582;2023-06-19T00:09:25;17.02;;;9.38;;
71236;SDS011;58984;51.960;5.582;2023-06-19T00:11:50;12.82;;;9.38;;
71236;SDS011;58984;51.960;5.582;2023-06-19T00:14:16;14.40;;;9.25;;
71236;SDS011;58984;51.960;5.582;2023-06-19T00:16:42;11.52;;;8.98;;
71236;SDS011;58984;51.960;5.582;2023-06-19T00:19:08;14.63;;;9.30;;
71236;SDS011;58984;51.960;5.582;2023-06-19T00:21:34;12.50;;;8.43;;
71236;SDS011;58984;51.960;5.582;2023-06-19T00:24:00;10.93;;;8.02;;
71236;SDS011;58984;51.960;5.582;2023-06-19T00:26:25;13.40;;;9.10;;
71236;SDS011;58984;51.960;5.582;2023-06-19T00:28:51;12.05;;;8.75;;
71236;SDS011;58984;51.960;5.582;2023-06-19T00:31:17;13.45;;;8.82;;
71236;SDS011;58984;51.960;5.582;2023-06-19T00:33:44;13.88;;;8.85;;
71236;SDS011;58984;51.960;5.582;2023-06-19T00:36:10;13.43;;;8.68;;
71236;SDS011;58984;51.960;5.582;2023-06-19T00:38:38;12.20;;;8.25;;
71236;SDS011;58984;51.960;5.582;2023-06-19T00:41:04;12.98;;;8.52;;
71236;SDS011;58984;51.960;5.582;2023-06-19T00:43:30;13.75;;;8.40;;
71236;SDS011;58984;51.960;5.582;2023-06-19T00:45:57;14.38;;;9.00;;
71236;SDS011;58984;51.960;5.582;2023-06-19T00:48:23;10.25;;;8.35;;
71236;SDS011;58984;51.960;5.582;2023-06-19T00:50:49;10.15;;;8.10;;
71236;SDS011;58984;51.960;5.582;2023-06-19T00:53:15;10.52;;;8.00;;
71236;SDS011;58984;51.960;5.582;2023-06-19T00:55:42;9.65;;;7.38;;
71236;SDS011;58984;51.960;5.582;2023-06-19T00:58:09;10.45;;;7.38;;
71236;SDS011;58984;51.960;5.582;2023-06-19T01:00:35;10.07;;;7.50;;
71236;SDS011;58984;51.960;5.582;2023-06-19T01:03:00;11.98;;;7.85;;
71236;SDS011;58984;51.960;5.582;2023-06-19T01:05:26;10.00;;;6.80;;
71236;SDS011;58984;51.960;5.582;2023-06-19T01:08:03;9.18;;;6.70;;
71236;SDS011;58984;51.960;5.582;2023-06-19T01:10:51;10.95;;;6.70;;
71236;SDS011;58984;51.960;5.582;2023-06-19T01:13:22;8.38;;;6.22;;
71236;SDS011;58984;51.960;5.582;2023-06-19T01:16:10;9.18;;;6.07;;
71236;SDS011;58984;51.960;5.582;2023-06-19T01:18:37;7.32;;;5.03;;
71236;SDS011;58984;51.960;5.582;2023-06-19T01:21:15;7.55;;;5.10;;
71236;SDS011;58984;51.960;5.582;2023-06-19T01:23:42;12.27;;;5.15;;
71236;SDS011;58984;51.960;5.582;2023-06-19T01:26:09;5.35;;;4.13;;
71236;SDS011;58984;51.960;5.582;2023-06-19T01:28:35;8.02;;;4.45;;
71236;SDS011;58984;51.960;5.582;2023-06-19T01:31:16;6.05;;;4.00;;
71236;SDS011;58984;51.960;5.582;2023-06-19T01:34:08;6.50;;;3.85;;
71236;SDS011;58984;51.960;5.582;2023-06-19T01:36:36;5.88;;;3.78;;
71236;SDS011;58984;51.960;5.582;2023-06-19T01:39:02;6.10;;;3.58;;
71236;SDS011;58984;51.960;5.582;2023-06-19T01:41:28;6.63;;;3.63;;
71236;SDS011;58984;51.960;5.582;2023-06-19T01:43:56;5.90;;;3.55;;
71236;SDS011;58984;51.960;5.582;2023-06-19T01:46:23;6.32;;;3.50;;
71236;SDS011;58984;51.960;5.582;2023-06-19T01:48:49;7.28;;;3.50;;
71236;SDS011;58984;51.960;5.582;2023-06-19T01:51:14;5.63;;;3.80;;
71236;SDS011;58984;51.960;5.582;2023-06-19T01:53:41;6.18;;;3.97;;
71236;SDS011;58984;51.960;5.582;2023-06-19T01:56:06;7.53;;;3.90;;
71236;SDS011;58984;51.960;5.582;2023-06-19T01:58:32;6.88;;;4.13;;
71236;SDS011;58984;51.960;5.582;2023-06-19T02:00:58;4.63;;;3.20;;
71236;SDS011;58984;51.960;5.582;2023-06-19T02:03:23;7.07;;;3.85;;
71236;SDS011;58984;51.960;5.582;2023-06-19T02:05:49;4.65;;;3.33;;
71236;SDS011;58984;51.960;5.582;2023-06-19T02:08:14;5.65;;;3.60;;
71236;SDS011;58984;51.960;5.582;2023-06-19T02:10:40;4.00;;;3.05;;
71236;SDS011;58984;51.960;5.582;2023-06-19T02:13:06;4.43;;;2.92;;
71236;SDS011;58984;51.960;5.582;2023-06-19T02:15:31;5.72;;;3.10;;
71236;SDS011;58984;51.960;5.582;2023-06-19T02:17:57;4.00;;;2.53;;
71236;SDS011;58984;51.960;5.582;2023-06-19T02:20:23;3.45;;;2.58;;
71236;SDS011;58984;51.960;5.582;2023-06-19T02:22:52;4.65;;;2.63;;
71236;SDS011;58984;51.960;5.582;2023-06-19T02:25:18;3.92;;;2.70;;
71236;SDS011;58984;51.960;5.582;2023-06-19T02:27:43;4.97;;;2.90;;
71236;SDS011;58984;51.960;5.582;2023-06-19T02:30:09;3.90;;;2.67;;
71236;SDS011;58984;51.960;5.582;2023-06-19T02:32:35;4.55;;;2.80;;
71236;SDS011;58984;51.960;5.582;2023-06-19T02:35:02;3.72;;;2.53;;
71236;SDS011;58984;51.960;5.582;2023-06-19T02:37:29;4.07;;;2.83;;
71236;SDS011;58984;51.960;5.582;2023-06-19T02:39:55;3.60;;;2.58;;
71236;SDS011;58984;51.960;5.582;2023-06-19T02:42:20;4.57;;;2.70;;
71236;SDS011;58984;51.960;5.582;2023-06-19T02:44:46;4.90;;;2.92;;
71236;SDS011;58984;51.960;5.582;2023-06-19T02:47:12;4.20;;;3.03;;
71236;SDS011;58984;51.960;5.582;2023-06-19T02:49:37;3.28;;;2.65;;
71236;SDS011;58984;51.960;5.582;2023-06-19T02:52:03;3.88;;;3.03;;
71236;SDS011;58984;51.960;5.582;2023-06-19T02:54:29;6.28;;;2.97;;
71236;SDS011;58984;51.960;5.582;2023-06-19T02:56:55;4.72;;;2.53;;
71236;SDS011;58984;51.960;5.582;2023-06-19T02:59:20;3.72;;;2.45;;
71236;SDS011;58984;51.960;5.582;2023-06-19T03:01:47;3.05;;;2.40;;
71236;SDS011;58984;51.960;5.582;2023-06-19T03:04:12;3.22;;;2.70;;
71236;SDS011;58984;51.960;5.582;2023-06-19T03:06:38;5.45;;;2.70;;
71236;SDS011;58984;51.960;5.582;2023-06-19T03:09:04;3.08;;;2.38;;
71236;SDS011;58984;51.960;5.582;2023-06-19T03:14:05;3.33;;;2.60;;
71236;SDS011;58984;51.960;5.582;2023-06-19T03:16:32;4.25;;;2.83;;
71236;SDS011;58984;51.960;5.582;2023-06-19T03:18:58;4.82;;;2.83;;
71236;SDS011;58984;51.960;5.582;2023-06-19T03:21:24;4.25;;;3.13;;
71236;SDS011;58984;51.960;5.582;2023-06-19T03:23:49;2.92;;;2.55;;
71236;SDS011;58984;51.960;5.582;2023-06-19T03:26:15;3.60;;;2.58;;
71236;SDS011;58984;51.960;5.582;2023-06-19T03:28:40;4.20;;;2.53;;
71236;SDS011;58984;51.960;5.582;2023-06-19T03:31:06;4.53;;;2.72;;
71236;SDS011;58984;51.960;5.582;2023-06-19T03:33:32;3.95;;;2.70;;
71236;SDS011;58984;51.960;5.582;2023-06-19T03:35:57;3.15;;;2.50;;
71236;SDS011;58984;51.960;5.582;2023-06-19T03:38:23;3.83;;;2.65;;
71236;SDS011;58984;51.960;5.582;2023-06-19T03:40:48;4.28;;;2.67;;
71236;SDS011;58984;51.960;5.582;2023-06-19T03:43:14;4.75;;;2.78;;
71236;SDS011;58984;51.960;5.582;2023-06-19T03:45:39;3.50;;;2.67;;
71236;SDS011;58984;51.960;5.582;2023-06-19T03:48:05;4.80;;;2.80;;
71236;SDS011;58984;51.960;5.582;2023-06-19T03:50:31;5.50;;;3.08;;
71236;SDS011;58984;51.960;5.582;2023-06-19T03:52:56;3.65;;;2.47;;
71236;SDS011;58984;51.960;5.582;2023-06-19T03:55:22;4.75;;;3.05;;
71236;SDS011;58984;51.960;5.582;2023-06-19T03:57:47;4.00;;;2.88;;
71236;SDS011;58984;51.960;5.582;2023-06-19T04:00:13;6.95;;;3.30;;
71236;SDS011;58984;51.960;5.582;2023-06-19T04:02:39;4.10;;;2.53;;
71236;SDS011;58984;51.960;5.582;2023-06-19T04:05:05;3.75;;;2.63;;
71236;SDS011;58984;51.960;5.582;2023-06-19T04:07:31;3.85;;;2.50;;
71236;SDS011;58984;51.960;5.582;2023-06-19T04:09:57;5.70;;;2.72;;
71236;SDS011;58984;51.960;5.582;2023-06-19T04:12:23;4.85;;;2.80;;
71236;SDS011;58984;51.960;5.582;2023-06-19T04:14:50;5.10;;;3.00;;
71236;SDS011;58984;51.960;5.582;2023-06-19T04:17:15;3.70;;;2.50;;
71236;SDS011;58984;51.960;5.582;2023-06-19T04:19:41;5.30;;;3.08;;
71236;SDS011;58984;51.960;5.582;2023-06-19T04:22:07;3.53;;;2.70;;
71236;SDS011;58984;51.960;5.582;2023-06-19T04:24:32;5.53;;;3.17;;
71236;SDS011;58984;51.960;5.582;2023-06-19T04:26:58;3.15;;;2.67;;
71236;SDS011;58984;51.960;5.582;2023-06-19T04:29:23;5.68;;;3.53;;
71236;SDS011;58984;51.960;5.582;2023-06-19T04:31:49;4.63;;;2.88;;
71236;SDS011;58984;51.960;5.582;2023-06-19T04:34:15;4.78;;;3.38;;
71236;SDS011;58984;51.960;5.582;2023-06-19T04:36:41;5.25;;;3.42;;
71236;SDS011;58984;51.960;5.582;2023-06-19T04:39:07;6.28;;;3.50;;
71236;SDS011;58984;51.960;5.582;2023-06-19T04:41:33;6.70;;;3.47;;
71236;SDS011;58984;51.960;5.582;2023-06-19T04:44:03;5.75;;;3.47;;
71236;SDS011;58984;51.960;5.582;2023-06-19T04:46:32;5.07;;;3.42;;
71236;SDS011;58984;51.960;5.582;2023-06-19T04:48:58;6.78;;;3.63;;
71236;SDS011;58984;51.960;5.582;2023-06-19T04:51:24;6.40;;;3.95;;
71236;SDS011;58984;51.960;5.582;2023-06-19T04:53:51;7.13;;;4.32;;
71236;SDS011;58984;51.960;5.582;2023-06-19T04:56:17;4.65;;;3.90;;
71236;SDS011;58984;51.960;5.582;2023-06-19T04:58:42;6.97;;;4.07;;
71236;SDS011;58984;51.960;5.582;2023-06-19T05:01:14;5.45;;;4.00;;
71236;SDS011;58984;51.960;5.582;2023-06-19T05:03:41;5.80;;;3.85;;
71236;SDS011;58984;51.960;5.582;2023-06-19T05:06:07;6.72;;;4.47;;
71236;SDS011;58984;51.960;5.582;2023-06-19T05:08:33;6.65;;;4.80;;
71236;SDS011;58984;51.960;5.582;2023-06-19T05:10:59;9.25;;;5.00;;
71236;SDS011;58984;51.960;5.582;2023-06-19T05:13:24;8.65;;;4.53;;
71236;SDS011;58984;51.960;5.582;2023-06-19T05:15:50;7.07;;;4.40;;
71236;SDS011;58984;51.960;5.582;2023-06-19T05:18:16;5.50;;;4.05;;
71236;SDS011;58984;51.960;5.582;2023-06-19T05:20:42;6.18;;;3.92;;
71236;SDS011;58984;51.960;5.582;2023-06-19T05:23:08;7.00;;;4.07;;
71236;SDS011;58984;51.960;5.582;2023-06-19T05:25:34;6.82;;;4.63;;
71236;SDS011;58984;51.960;5.582;2023-06-19T05:27:59;9.73;;;4.70;;
71236;SDS011;58984;51.960;5.582;2023-06-19T05:30:25;7.90;;;4.03;;
71236;SDS011;58984;51.960;5.582;2023-06-19T05:32:50;11.13;;;5.13;;
71236;SDS011;58984;51.960;5.582;2023-06-19T05:35:16;6.28;;;4.50;;
71236;SDS011;58984;51.960;5.582;2023-06-19T05:37:41;10.55;;;5.97;;
71236;SDS011;58984;51.960;5.582;2023-06-19T05:40:08;7.93;;;5.07;;
71236;SDS011;58984;51.960;5.582;2023-06-19T05:42:35;9.07;;;4.93;;
71236;SDS011;58984;51.960;5.582;2023-06-19T05:45:01;8.00;;;4.80;;
71236;SDS011;58984;51.960;5.582;2023-06-19T05:47:27;8.10;;;4.45;;
71236;SDS011;58984;51.960;5.582;2023-06-19T05:49:54;8.52;;;5.53;;
71236;SDS011;58984;51.960;5.582;2023-06-19T05:52:20;9.13;;;4.60;;
71236;SDS011;58984;51.960;5.582;2023-06-19T05:54:46;7.72;;;4.40;;
71236;SDS011;58984;51.960;5.582;2023-06-19T05:57:11;11.43;;;5.43;;
71236;SDS011;58984;51.960;5.582;2023-06-19T05:59:37;9.02;;;4.70;;
71236;SDS011;58984;51.960;5.582;2023-06-19T06:02:03;7.18;;;4.40;;
71236;SDS011;58984;51.960;5.582;2023-06-19T06:04:29;7.50;;;4.50;;
71236;SDS011;58984;51.960;5.582;2023-06-19T06:06:55;6.60;;;4.40;;
71236;SDS011;58984;51.960;5.582;2023-06-19T06:09:22;6.45;;;4.35;;
71236;SDS011;58984;51.960;5.582;2023-06-19T06:11:47;6.40;;;4.22;;
71236;SDS011;58984;51.960;5.582;2023-06-19T06:14:13;7.63;;;4.65;;
71236;SDS011;58984;51.960;5.582;2023-06-19T06:16:39;8.50;;;4.78;;
71236;SDS011;58984;51.960;5.582;2023-06-19T06:19:06;7.82;;;4.80;;
71236;SDS011;58984;51.960;5.582;2023-06-19T06:21:31;7.07;;;4.60;;
71236;SDS011;58984;51.960;5.582;2023-06-19T06:23:57;8.10;;;4.40;;
71236;SDS011;58984;51.960;5.582;2023-06-19T06:26:22;7.55;;;4.35;;
71236;SDS011;58984;51.960;5.582;2023-06-19T06:28:48;10.32;;;4.50;;
71236;SDS011;58984;51.960;5.582;2023-06-19T06:31:14;7.35;;;4.07;;
71236;SDS011;58984;51.960;5.582;2023-06-19T06:33:39;7.28;;;4.38;;
71236;SDS011;58984;51.960;5.582;2023-06-19T06:36:05;7.07;;;3.85;;
71236;SDS011;58984;51.960;5.582;2023-06-19T06:38:31;8.60;;;4.32;;
71236;SDS011;58984;51.960;5.582;2023-06-19T06:40:57;8.52;;;3.83;;
71236;SDS011;58984;51.960;5.582;2023-06-19T06:43:22;6.70;;;4.10;;
71236;SDS011;58984;51.960;5.582;2023-06-19T06:45:48;4.95;;;3.55;;
71236;SDS011;58984;51.960;5.582;2023-06-19T06:48:13;6.00;;;3.90;;
71236;SDS011;58984;51.960;5.582;2023-06-19T06:50:40;7.32;;;3.75;;
71236;SDS011;58984;51.960;5.582;2023-06-19T06:53:06;6.38;;;3.95;;
71236;SDS011;58984;51.960;5.582;2023-06-19T06:55:31;6.90;;;3.97;;
71236;SDS011;58984;51.960;5.582;2023-06-19T06:57:57;5.70;;;3.50;;
71236;SDS011;58984;51.960;5.582;2023-06-19T07:00:22;5.28;;;3.67;;
71236;SDS011;58984;51.960;5.582;2023-06-19T07:02:48;7.28;;;4.10;;
71236;SDS011;58984;51.960;5.582;2023-06-19T07:05:15;7.40;;;4.47;;
71236;SDS011;58984;51.960;5.582;2023-06-19T07:07:41;7.35;;;4.15;;
71236;SDS011;58984;51.960;5.582;2023-06-19T07:10:07;6.20;;;3.97;;
71236;SDS011;58984;51.960;5.582;2023-06-19T07:12:34;6.53;;;4.57;;
71236;SDS011;58984;51.960;5.582;2023-06-19T07:14:59;8.18;;;5.20;;
71236;SDS011;58984;51.960;5.582;2023-06-19T07:17:25;6.30;;;5.15;;
71236;SDS011;58984;51.960;5.582;2023-06-19T07:19:50;9.20;;;6.10;;
71236;SDS011;58984;51.960;5.582;2023-06-19T07:22:16;7.75;;;5.95;;
71236;SDS011;58984;51.960;5.582;2023-06-19T07:24:42;10.60;;;6.13;;
71236;SDS011;58984;51.960;5.582;2023-06-19T07:27:07;8.55;;;6.45;;
71236;SDS011;58984;51.960;5.582;2023-06-19T07:29:33;11.10;;;6.80;;
71236;SDS011;58984;51.960;5.582;2023-06-19T07:31:58;10.23;;;6.50;;
71236;SDS011;58984;51.960;5.582;2023-06-19T07:34:26;11.50;;;7.22;;
71236;SDS011;58984;51.960;5.582;2023-06-19T07:36:51;11.52;;;7.50;;
71236;SDS011;58984;51.960;5.582;2023-06-19T07:39:17;10.05;;;7.68;;
71236;SDS011;58984;51.960;5.582;2023-06-19T07:41:42;9.90;;;7.40;;
71236;SDS011;58984;51.960;5.582;2023-06-19T07:44:09;12.75;;;7.70;;
71236;SDS011;58984;51.960;5.582;2023-06-19T07:46:35;9.95;;;6.93;;
71236;SDS011;58984;51.960;5.582;2023-06-19T07:49:00;12.60;;;7.88;;
71236;SDS011;58984;51.960;5.582;2023-06-19T07:51:26;10.77;;;7.53;;
71236;SDS011;58984;51.960;5.582;2023-06-19T07:53:51;9.70;;;7.07;;
71236;SDS011;58984;51.960;5.582;2023-06-19T07:56:17;9.60;;;7.45;;
71236;SDS011;58984;51.960;5.582;2023-06-19T07:58:42;10.32;;;8.15;;
71236;SDS011;58984;51.960;5.582;2023-06-19T08:01:08;10.18;;;7.80;;
71236;SDS011;58984;51.960;5.582;2023-06-19T08:03:35;10.68;;;7.75;;
71236;SDS011;58984;51.960;5.582;2023-06-19T08:06:00;10.48;;;8.05;;
71236;SDS011;58984;51.960;5.582;2023-06-19T08:08:26;10.35;;;7.32;;
71236;SDS011;58984;51.960;5.582;2023-06-19T08:10:52;9.30;;;6.47;;
71236;SDS011;58984;51.960;5.582;2023-06-19T08:13:17;9.38;;;7.03;;
71236;SDS011;58984;51.960;5.582;2023-06-19T08:15:43;10.38;;;7.15;;
71236;SDS011;58984;51.960;5.582;2023-06-19T08:18:10;8.93;;;6.93;;
71236;SDS011;58984;51.960;5.582;2023-06-19T08:20:35;8.90;;;6.75;;
71236;SDS011;58984;51.960;5.582;2023-06-19T08:23:01;10.73;;;7.88;;
71236;SDS011;58984;51.960;5.582;2023-06-19T08:25:26;9.63;;;6.85;;
71236;SDS011;58984;51.960;5.582;2023-06-19T08:27:52;10.63;;;6.93;;
71236;SDS011;58984;51.960;5.582;2023-06-19T08:30:18;11.07;;;7.20;;
71236;SDS011;58984;51.960;5.582;2023-06-19T08:32:46;11.32;;;7.32;;
71236;SDS011;58984;51.960;5.582;2023-06-19T08:35:13;8.70;;;7.10;;
71236;SDS011;58984;51.960;5.582;2023-06-19T08:37:40;9.68;;;7.03;;
71236;SDS011;58984;51.960;5.582;2023-06-19T08:40:05;10.77;;;7.00;;
71236;SDS011;58984;51.960;5.582;2023-06-19T08:42:34;11.65;;;7.53;;
71236;SDS011;58984;51.960;5.582;2023-06-19T08:45:00;10.07;;;7.20;;
71236;SDS011;58984;51.960;5.582;2023-06-19T08:47:29;10.80;;;6.97;;
71236;SDS011;58984;51.960;5.582;2023-06-19T08:49:57;10.95;;;7.53;;
71236;SDS011;58984;51.960;5.582;2023-06-19T08:52:23;13.38;;;9.27;;
71236;SDS011;58984;51.960;5.582;2023-06-19T08:54:49;10.18;;;7.43;;
71236;SDS011;58984;51.960;5.582;2023-06-19T08:57:14;11.20;;;8.20;;
71236;SDS011;58984;51.960;5.582;2023-06-19T08:59:41;11.90;;;8.05;;
71236;SDS011;58984;51.960;5.582;2023-06-19T09:02:16;12.50;;;8.30;;
71236;SDS011;58984;51.960;5.582;2023-06-19T09:04:42;12.75;;;7.70;;
71236;SDS011;58984;51.960;5.582;2023-06-19T09:07:08;10.18;;;7.40;;
71236;SDS011;58984;51.960;5.582;2023-06-19T09:09:34;12.55;;;7.32;;
71236;SDS011;58984;51.960;5.582;2023-06-19T09:17:01;10.80;;;7.15;;
71236;SDS011;58984;51.960;5.582;2023-06-19T09:19:28;10.57;;;7.10;;
71236;SDS011;58984;51.960;5.582;2023-06-19T09:21:58;12.82;;;7.78;;
71236;SDS011;58984;51.960;5.582;2023-06-19T09:24:32;11.48;;;7.57;;
71236;SDS011;58984;51.960;5.582;2023-06-19T09:27:11;10.02;;;6.82;;
71236;SDS011;58984;51.960;5.582;2023-06-19T09:29:43;11.48;;;6.63;;
71236;SDS011;58984;51.960;5.582;2023-06-19T09:32:14;10.57;;;7.30;;
71236;SDS011;58984;51.960;5.582;2023-06-19T09:34:43;9.35;;;6.93;;
71236;SDS011;58984;51.960;5.582;2023-06-19T09:37:10;9.98;;;6.93;;
71236;SDS011;58984;51.960;5.582;2023-06-19T09:39:36;11.60;;;6.88;;
71236;SDS011;58984;51.960;5.582;2023-06-19T09:42:03;9.93;;;6.85;;
71236;SDS011;58984;51.960;5.582;2023-06-19T09:44:34;8.45;;;6.70;;
71236;SDS011;58984;51.960;5.582;2023-06-19T09:47:11;10.85;;;6.65;;
71236;SDS011;58984;51.960;5.582;2023-06-19T09:49:49;10.95;;;6.38;;
71236;SDS011;58984;51.960;5.582;2023-06-19T09:52:20;8.65;;;5.80;;
71236;SDS011;58984;51.960;5.582;2023-06-19T09:54:50;8.52;;;6.63;;
71236;SDS011;58984;51.960;5.582;2023-06-19T09:57:16;6.55;;;5.70;;
71236;SDS011;58984;51.960;5.582;2023-06-19T09:59:43;9.65;;;6.47;;
71236;SDS011;58984;51.960;5.582;2023-06-19T10:02:13;9.77;;;6.55;;
71236;SDS011;58984;51.960;5.582;2023-06-19T10:04:49;9.43;;;6.20;;
71236;SDS011;58984;51.960;5.582;2023-06-19T10:07:20;8.52;;;5.70;;
71236;SDS011;58984;51.960;5.582;2023-06-19T10:15:07;28.00;;;12.80;;
71236;SDS011;58984;51.960;5.582;2023-06-19T10:17:34;16.05;;;9.93;;
71236;SDS011;58984;51.960;5.582;2023-06-19T10:20:00;17.13;;;8.95;;
71236;SDS011;58984;51.960;5.582;2023-06-19T10:22:30;11.80;;;7.88;;
71236;SDS011;58984;51.960;5.582;2023-06-19T10:24:56;11.73;;;8.02;;
71236;SDS011;58984;51.960;5.582;2023-06-19T10:27:22;9.73;;;7.30;;
71236;SDS011;58984;51.960;5.582;2023-06-19T10:29:52;9.13;;;6.97;;
71236;SDS011;58984;51.960;5.582;2023-06-19T10:32:24;7.90;;;6.47;;
71236;SDS011;58984;51.960;5.582;2023-06-19T10:34:50;12.13;;;7.80;;
71236;SDS011;58984;51.960;5.582;2023-06-19T10:37:16;8.43;;;6.32;;
71236;SDS011;58984;51.960;5.582;2023-06-19T10:39:42;10.80;;;7.40;;
71236;SDS011;58984;51.960;5.582;2023-06-19T10:42:08;6.82;;;5.82;;
71236;SDS011;58984;51.960;5.582;2023-06-19T10:44:35;8.95;;;6.35;;
71236;SDS011;58984;51.960;5.582;2023-06-19T10:47:04;10.50;;;7.00;;
71236;SDS011;58984;51.960;5.582;2023-06-19T10:49:32;9.57;;;6.38;;
71236;SDS011;58984;51.960;5.582;2023-06-19T10:51:59;7.32;;;5.75;;
71236;SDS011;58984;51.960;5.582;2023-06-19T10:54:25;10.05;;;6.50;;
71236;SDS011;58984;51.960;5.582;2023-06-19T10:56:51;8.60;;;6.35;;
71236;SDS011;58984;51.960;5.582;2023-06-19T10:59:17;11.23;;;6.32;;
71236;SDS011;58984;51.960;5.582;2023-06-19T11:01:47;8.27;;;6.13;;
71236;SDS011;58984;51.960;5.582;2023-06-19T11:04:14;7.88;;;5.85;;
71236;SDS011;58984;51.960;5.582;2023-06-19T11:06:42;8.50;;;6.18;;
71236;SDS011;58984;51.960;5.582;2023-06-19T11:09:09;9.68;;;6.22;;
71236;SDS011;58984;51.960;5.582;2023-06-19T11:11:39;9.43;;;5.97;;
71236;SDS011;58984;51.960;5.582;2023-06-19T11:14:05;7.40;;;5.93;;
71236;SDS011;58984;51.960;5.582;2023-06-19T11:16:32;6.65;;;5.57;;
71236;SDS011;58984;51.960;5.582;2023-06-19T11:19:08;6.07;;;5.45;;
71236;SDS011;58984;51.960;5.582;2023-06-19T11:21:38;9.68;;;5.85;;
71236;SDS011;58984;51.960;5.582;2023-06-19T11:24:11;6.95;;;5.40;;
71236;SDS011;58984;51.960;5.582;2023-06-19T11:26:38;9.07;;;5.75;;
71236;SDS011;58984;51.960;5.582;2023-06-19T11:29:21;6.82;;;5.07;;
71236;SDS011;58984;51.960;5.582;2023-06-19T11:31:50;9.30;;;5.80;;
71236;SDS011;58984;51.960;5.582;2023-06-19T11:34:16;8.95;;;6.13;;
71236;SDS011;58984;51.960;5.582;2023-06-19T11:36:43;8.30;;;5.88;;
71236;SDS011;58984;51.960;5.582;2023-06-19T11:39:12;7.65;;;5.25;;
71236;SDS011;58984;51.960;5.582;2023-06-19T11:41:39;8.75;;;5.30;;
71236;SDS011;58984;51.960;5.582;2023-06-19T11:44:06;8.00;;;5.65;;
71236;SDS011;58984;51.960;5.582;2023-06-19T11:46:35;8.57;;;6.03;;
71236;SDS011;58984;51.960;5.582;2023-06-19T11:49:17;8.27;;;5.60;;
71236;SDS011;58984;51.960;5.582;2023-06-19T11:51:43;8.02;;;5.50;;
71236;SDS011;58984;51.960;5.582;2023-06-19T11:54:09;10.80;;;6.53;;
71236;SDS011;58984;51.960;5.582;2023-06-19T11:56:36;9.88;;;6.40;;
71236;SDS011;58984;51.960;5.582;2023-06-19T11:59:03;8.48;;;5.40;;
71236;SDS011;58984;51.960;5.582;2023-06-19T12:01:29;7.80;;;6.03;;
71236;SDS011;58984;51.960;5.582;2023-06-19T12:03:59;8.55;;;5.72;;
71236;SDS011;58984;51.960;5.582;2023-06-19T12:06:25;9.88;;;6.07;;
71236;SDS011;58984;51.960;5.582;2023-06-19T12:08:51;7.85;;;5.47;;
71236;SDS011;58984;51.960;5.582;2023-06-19T12:11:17;8.88;;;5.82;;
71236;SDS011;58984;51.960;5.582;2023-06-19T12:13:43;9.63;;;5.63;;
71236;SDS011;58984;51.960;5.582;2023-06-19T12:16:11;8.82;;;6.00;;
71236;SDS011;58984;51.960;5.582;2023-06-19T12:18:38;9.35;;;6.10;;
71236;SDS011;58984;51.960;5.582;2023-06-19T12:21:04;10.60;;;6.03;;
71236;SDS011;58984;51.960;5.582;2023-06-19T12:23:29;9.02;;;6.13;;
71236;SDS011;58984;51.960;5.582;2023-06-19T12:25:55;9.57;;;6.15;;
71236;SDS011;58984;51.960;5.582;2023-06-19T12:28:21;9.35;;;5.80;;
71236;SDS011;58984;51.960;5.582;2023-06-19T12:30:47;8.93;;;5.72;;
71236;SDS011;58984;51.960;5.582;2023-06-19T12:33:17;9.40;;;6.32;;
71236;SDS011;58984;51.960;5.582;2023-06-19T12:35:43;8.27;;;5.80;;
71236;SDS011;58984;51.960;5.582;2023-06-19T12:38:09;8.25;;;5.63;;
71236;SDS011;58984;51.960;5.582;2023-06-19T12:40:38;7.38;;;5.47;;
71236;SDS011;58984;51.960;5.582;2023-06-19T12:43:04;9.18;;;5.43;;
71236;SDS011;58984;51.960;5.582;2023-06-19T12:45:30;9.52;;;5.53;;
71236;SDS011;58984;51.960;5.582;2023-06-19T12:47:55;7.18;;;5.55;;
71236;SDS011;58984;51.960;5.582;2023-06-19T12:50:21;8.35;;;5.38;;
71236;SDS011;58984;51.960;5.582;2023-06-19T12:52:47;7.28;;;5.40;;
71236;SDS011;58984;51.960;5.582;2023-06-19T12:55:13;6.18;;;4.85;;
71236;SDS011;58984;51.960;5.582;2023-06-19T12:57:38;6.38;;;5.57;;
71236;SDS011;58984;51.960;5.582;2023-06-19T13:00:05;6.78;;;5.32;;
71236;SDS011;58984;51.960;5.582;2023-06-19T13:02:35;7.57;;;5.50;;
71236;SDS011;58984;51.960;5.582;2023-06-19T13:05:00;7.75;;;5.18;;
71236;SDS011;58984;51.960;5.582;2023-06-19T13:07:26;8.18;;;5.43;;
71236;SDS011;58984;51.960;5.582;2023-06-19T13:09:52;7.85;;;5.57;;
71236;SDS011;58984;51.960;5.582;2023-06-19T13:12:17;9.70;;;5.63;;
71236;SDS011;58984;51.960;5.582;2023-06-19T13:14:43;8.50;;;5.78;;
71236;SDS011;58984;51.960;5.582;2023-06-19T13:17:08;7.10;;;5.28;;
71236;SDS011;58984;51.960;5.582;2023-06-19T13:19:34;7.00;;;5.63;;
71236;SDS011;58984;51.960;5.582;2023-06-19T13:21:59;8.98;;;6.38;;
71236;SDS011;58984;51.960;5.582;2023-06-19T13:24:25;7.00;;;5.88;;
71236;SDS011;58984;51.960;5.582;2023-06-19T13:26:52;7.78;;;5.55;;
71236;SDS011;58984;51.960;5.582;2023-06-19T13:29:18;7.35;;;5.22;;
71236;SDS011;58984;51.960;5.582;2023-06-19T13:31:44;7.22;;;5.68;;
71236;SDS011;58984;51.960;5.582;2023-06-19T13:34:09;10.75;;;6.15;;
71236;SDS011;58984;51.960;5.582;2023-06-19T13:36:35;7.50;;;5.82;;
71236;SDS011;58984;51.960;5.582;2023-06-19T13:39:01;8.68;;;6.07;;
71236;SDS011;58984;51.960;5.582;2023-06-19T13:41:27;9.05;;;6.18;;
71236;SDS011;58984;51.960;5.582;2023-06-19T13:43:55;8.55;;;6.30;;
71236;SDS011;58984;51.960;5.582;2023-06-19T13:46:21;8.15;;;5.57;;
71236;SDS011;58984;51.960;5.582;2023-06-19T13:48:47;9.23;;;6.05;;
71236;SDS011;58984;51.960;5.582;2023-06-19T13:51:16;8.07;;;6.03;;
71236;SDS011;58984;51.960;5.582;2023-06-19T13:53:42;8.38;;;6.20;;
71236;SDS011;58984;51.960;5.582;2023-06-19T13:56:07;8.48;;;5.65;;
71236;SDS011;58984;51.960;5.582;2023-06-19T13:58:33;8.77;;;5.78;;
71236;SDS011;58984;51.960;5.582;2023-06-19T14:00:59;8.35;;;5.95;;
71236;SDS011;58984;51.960;5.582;2023-06-19T14:03:24;9.43;;;6.05;;
71236;SDS011;58984;51.960;5.582;2023-06-19T14:05:50;8.35;;;5.72;;
71236;SDS011;58984;51.960;5.582;2023-06-19T14:08:15;8.25;;;6.25;;
71236;SDS011;58984;51.960;5.582;2023-06-19T14:10:41;10.15;;;6.90;;
71236;SDS011;58984;51.960;5.582;2023-06-19T14:13:08;10.32;;;6.05;;
71236;SDS011;58984;51.960;5.582;2023-06-19T14:15:34;9.48;;;6.72;;
71236;SDS011;58984;51.960;5.582;2023-06-19T14:17:59;6.47;;;5.85;;
71236;SDS011;58984;51.960;5.582;2023-06-19T14:20:25;8.50;;;6.07;;
71236;SDS011;58984;51.960;5.582;2023-06-19T14:22:51;9.30;;;6.40;;
71236;SDS011;58984;51.960;5.582;2023-06-19T14:25:17;10.38;;;6.35;;
71236;SDS011;58984;51.960;5.582;2023-06-19T14:27:43;9.27;;;6.40;;
71236;SDS011;58984;51.960;5.582;2023-06-19T14:30:08;8.30;;;6.25;;
71236;SDS011;58984;51.960;5.582;2023-06-19T14:32:37;11.38;;;6.63;;
71236;SDS011;58984;51.960;5.582;2023-06-19T14:35:03;8.27;;;6.28;;
71236;SDS011;58984;51.960;5.582;2023-06-19T14:37:29;8.13;;;6.00;;
71236;SDS011;58984;51.960;5.582;2023-06-19T14:39:55;8.70;;;6.40;;
71236;SDS011;58984;51.960;5.582;2023-06-19T14:42:20;9.98;;;5.85;;
71236;SDS011;58984;51.960;5.582;2023-06-19T14:44:46;9.73;;;5.85;;
71236;SDS011;58984;51.960;5.582;2023-06-19T14:47:12;8.27;;;5.97;;
71236;SDS011;58984;51.960;5.582;2023-06-19T14:49:37;9.45;;;6.65;;
71236;SDS011;58984;51.960;5.582;2023-06-19T14:52:03;8.23;;;6.07;;
71236;SDS011;58984;51.960;5.582;2023-06-19T14:54:29;8.70;;;6.30;;